Time;durP1;ratioP1;P1;durP2;ratioP2;P2;SDS_P1;SDS_P2;PMS_P1;PMS_P2;Temp;Humidity;BMP_temperature;BMP_pressure;BME280_temperature;BME280_humidity;BME280_pressure;Samples;Min_cycle;Max_cycle;Signal;HPM_P1;HPM_P2
2022/05/18 00:00:38;;;;;;;6.18;4.97;;;;;;;;;;4994143;28;20022;-78
2022/05/18 00:03:07;;;;;;;6.82;4.97;;;;;;;;;;4993892;28;20054;-75
2022/05/18 00:05:34;;;;;;;5.50;4.53;;;;;;;;;;4994158;28;20050;-76
2022/05/18 00:08:00;;;;;;;7.65;5.00;;;;;;;;;;4993753;28;20063;-75
2022/05/18 00:10:26;;;;;;;5.63;4.55;;;;;;;;;;4993931;28;20026;-76
2022/05/18 00:12:52;;;;;;;7.30;4.90;;;;;;;;;;4993843;28;20496;-77
2022/05/18 00:15:19;;;;;;;7.88;5.22;;;;;;;;;;4993799;28;20041;-77
2022/05/18 00:17:45;;;;;;;6.40;5.15;;;;;;;;;;4993644;28;20046;-79
2022/05/18 00:20:12;;;;;;;8.30;5.25;;;;;;;;;;4993413;28;20042;-76
2022/05/18 00:22:49;;;;;;;5.97;5.40;;;;;;;;;;4993876;28;20592;-78
2022/05/18 00:25:16;;;;;;;5.35;4.85;;;;;;;;;;4993548;28;20041;-78
2022/05/18 00:27:42;;;;;;;5.85;4.85;;;;;;;;;;4993429;28;20133;-77
2022/05/18 00:30:09;;;;;;;5.43;4.75;;;;;;;;;;4993522;28;20054;-78
2022/05/18 00:32:35;;;;;;;8.02;5.45;;;;;;;;;;4993604;28;20026;-77
2022/05/18 00:35:02;;;;;;;6.22;5.63;;;;;;;;;;4993266;28;20108;-78
2022/05/18 00:37:28;;;;;;;5.80;4.68;;;;;;;;;;4993391;28;20063;-77
2022/05/18 00:39:54;;;;;;;5.80;4.35;;;;;;;;;;4993236;28;20030;-77
2022/05/18 00:42:21;;;;;;;5.75;4.95;;;;;;;;;;4993284;28;20027;-77
2022/05/18 00:44:47;;;;;;;6.18;5.13;;;;;;;;;;4993428;28;20030;-78
2022/05/18 00:47:14;;;;;;;5.72;5.10;;;;;;;;;;4993119;28;20081;-78
2022/05/18 00:49:41;;;;;;;5.90;5.30;;;;;;;;;;4993416;28;20381;-79
2022/05/18 00:52:08;;;;;;;5.90;5.32;;;;;;;;;;4993314;28;20026;-81
2022/05/18 00:54:35;;;;;;;7.47;5.55;;;;;;;;;;4992863;28;20100;-81
2022/05/18 00:57:23;;;;;;;7.20;5.07;;;;;;;;;;4992969;28;20026;-81
2022/05/18 01:00:07;;;;;;;5.80;5.20;;;;;;;;;;4993236;28;20042;-80
2022/05/18 01:02:34;;;;;;;6.30;5.70;;;;;;;;;;4993014;28;20028;-80
2022/05/18 01:05:02;;;;;;;6.00;5.40;;;;;;;;;;4993176;28;20054;-80
2022/05/18 01:07:34;;;;;;;5.63;4.72;;;;;;;;;;4991831;28;20445;-78
2022/05/18 01:10:01;;;;;;;5.68;4.60;;;;;;;;;;4993052;28;20401;-77
2022/05/18 01:12:27;;;;;;;5.22;4.72;;;;;;;;;;4991651;28;20023;-77
2022/05/18 01:14:59;;;;;;;4.53;4.10;;;;;;;;;;4992920;28;20027;-78
2022/05/18 01:17:26;;;;;;;4.55;3.70;;;;;;;;;;4992661;28;20485;-76
2022/05/18 01:19:54;;;;;;;4.80;3.90;;;;;;;;;;4992827;28;20393;-77
2022/05/18 01:22:26;;;;;;;4.57;3.72;;;;;;;;;;4992533;28;20030;-75
2022/05/18 01:24:52;;;;;;;4.43;3.80;;;;;;;;;;4992742;28;20037;-77
2022/05/18 01:27:18;;;;;;;3.80;3.42;;;;;;;;;;4992608;28;20124;-77
2022/05/18 01:29:44;;;;;;;4.47;3.92;;;;;;;;;;4992933;28;20026;-77
2022/05/18 01:32:13;;;;;;;4.90;3.70;;;;;;;;;;4992735;28;20397;-78
2022/05/18 01:34:42;;;;;;;5.20;4.15;;;;;;;;;;4992773;28;20482;-78
2022/05/18 01:37:09;;;;;;;3.70;3.40;;;;;;;;;;4992418;28;20037;-77
2022/05/18 01:39:48;;;;;;;3.55;3.25;;;;;;;;;;4992714;28;20030;-76
2022/05/18 01:42:20;;;;;;;3.78;3.47;;;;;;;;;;4992473;28;20444;-77
2022/05/18 01:44:46;;;;;;;5.15;3.28;;;;;;;;;;4992661;28;20081;-76
2022/05/18 01:47:12;;;;;;;5.32;3.28;;;;;;;;;;4992444;28;20038;-76
2022/05/18 01:49:40;;;;;;;5.53;3.70;;;;;;;;;;4992602;28;20042;-78
2022/05/18 01:52:06;;;;;;;4.13;3.70;;;;;;;;;;4992343;28;20131;-76
2022/05/18 01:54:40;;;;;;;4.60;3.60;;;;;;;;;;4992722;28;20037;-78
2022/05/18 01:57:06;;;;;;;5.55;3.30;;;;;;;;;;4992407;28;20468;-77
2022/05/18 01:59:32;;;;;;;4.07;3.67;;;;;;;;;;4992517;28;20118;-78
2022/05/18 02:01:58;;;;;;;4.68;3.63;;;;;;;;;;4992464;28;20427;-79
2022/05/18 02:04:25;;;;;;;4.45;3.85;;;;;;;;;;4992410;28;20054;-80
2022/05/18 02:06:51;;;;;;;4.30;3.90;;;;;;;;;;4994500;28;20026;-77
2022/05/18 02:09:19;;;;;;;4.57;3.75;;;;;;;;;;4995954;28;20030;-77
2022/05/18 02:11:45;;;;;;;3.88;3.53;;;;;;;;;;4996282;28;20053;-76
2022/05/18 02:14:12;;;;;;;4.22;3.80;;;;;;;;;;4995915;28;20485;-76
2022/05/18 02:16:38;;;;;;;4.40;4.00;;;;;;;;;;4996120;28;20397;-79
2022/05/18 02:19:04;;;;;;;3.65;3.33;;;;;;;;;;4996120;28;20129;-77
2022/05/18 02:21:30;;;;;;;4.22;3.63;;;;;;;;;;4996077;28;20547;-78
2022/05/18 02:23:56;;;;;;;3.90;3.53;;;;;;;;;;4996087;28;20027;-76
2022/05/18 02:26:22;;;;;;;4.90;4.07;;;;;;;;;;4995829;28;20037;-76
2022/05/18 02:28:49;;;;;;;5.80;4.00;;;;;;;;;;4996033;28;20681;-77
2022/05/18 02:31:15;;;;;;;3.60;3.30;;;;;;;;;;4995741;28;20034;-76
2022/05/18 02:33:41;;;;;;;6.70;4.57;;;;;;;;;;4995698;28;20113;-77
2022/05/18 02:36:08;;;;;;;5.93;4.32;;;;;;;;;;4995581;28;20022;-77
2022/05/18 02:38:37;;;;;;;4.40;3.83;;;;;;;;;;4995681;28;20034;-79
2022/05/18 02:41:04;;;;;;;4.53;4.13;;;;;;;;;;4995493;28;20031;-75
2022/05/18 02:43:30;;;;;;;4.82;4.10;;;;;;;;;;4995620;28;20026;-76
2022/05/18 02:46:14;;;;;;;6.55;4.03;;;;;;;;;;4995684;28;20485;-77
2022/05/18 02:48:41;;;;;;;5.20;4.20;;;;;;;;;;4995649;28;20069;-76
2022/05/18 02:51:07;;;;;;;4.45;4.05;;;;;;;;;;4995300;28;20045;-78
2022/05/18 02:53:34;;;;;;;4.78;4.38;;;;;;;;;;4995337;28;20032;-79
2022/05/18 02:56:06;;;;;;;4.65;4.20;;;;;;;;;;4995384;28;20030;-80
2022/05/18 02:58:49;;;;;;;5.43;3.80;;;;;;;;;;4995227;28;20109;-78
2022/05/18 03:01:16;;;;;;;4.63;4.22;;;;;;;;;;4995389;28;20085;-78
2022/05/18 03:03:44;;;;;;;6.07;4.28;;;;;;;;;;4994854;28;20026;-78
2022/05/18 03:06:11;;;;;;;4.40;4.00;;;;;;;;;;4994001;28;20031;-77
2022/05/18 03:08:39;;;;;;;4.55;4.15;;;;;;;;;;4995059;28;20037;-77
2022/05/18 03:11:05;;;;;;;7.68;4.00;;;;;;;;;;4995310;28;20034;-80
2022/05/18 03:13:31;;;;;;;7.90;4.43;;;;;;;;;;4995100;28;20072;-79
2022/05/18 03:15:58;;;;;;;5.88;4.38;;;;;;;;;;4993817;28;20390;-81
2022/05/18 03:18:24;;;;;;;5.45;4.47;;;;;;;;;;4994276;28;20469;-77
2022/05/18 03:23:37;;;;;;;5.55;4.55;;;;;;;;;;4994920;28;20088;-79
2022/05/18 03:26:08;;;;;;;4.68;4.28;;;;;;;;;;4993673;28;20035;-77
2022/05/18 03:28:35;;;;;;;5.80;5.20;;;;;;;;;;4994684;28;20041;-79
2022/05/18 03:31:01;;;;;;;5.20;4.65;;;;;;;;;;4994724;28;20093;-77
2022/05/18 03:33:27;;;;;;;5.30;4.80;;;;;;;;;;4994471;28;20484;-77
2022/05/18 03:35:54;;;;;;;5.30;4.30;;;;;;;;;;4994969;28;20512;-79
2022/05/18 03:38:20;;;;;;;5.88;5.30;;;;;;;;;;4994503;28;20048;-79
2022/05/18 03:40:47;;;;;;;5.53;4.95;;;;;;;;;;4994566;28;20137;-78
2022/05/18 03:43:13;;;;;;;5.63;5.13;;;;;;;;;;4994426;28;20037;-77
2022/05/18 03:45:39;;;;;;;6.00;5.15;;;;;;;;;;4994167;28;20049;-79
2022/05/18 03:48:06;;;;;;;5.78;5.13;;;;;;;;;;4994471;28;20030;-79
2022/05/18 03:50:33;;;;;;;4.75;4.25;;;;;;;;;;4993715;28;20076;-78
2022/05/18 03:53:00;;;;;;;7.15;5.32;;;;;;;;;;4994443;28;20477;-80
2022/05/18 03:55:26;;;;;;;6.25;5.65;;;;;;;;;;4992948;28;20457;-79
2022/05/18 03:57:53;;;;;;;5.63;4.85;;;;;;;;;;4994356;28;20038;-80
2022/05/18 04:00:20;;;;;;;5.68;5.18;;;;;;;;;;4994171;28;20042;-80
2022/05/18 04:02:48;;;;;;;7.38;6.10;;;;;;;;;;4993991;28;20038;-79
2022/05/18 04:05:16;;;;;;;6.38;5.78;;;;;;;;;;4993883;28;20054;-80
2022/05/18 04:07:42;;;;;;;6.03;5.45;;;;;;;;;;4994017;28;20057;-80
2022/05/18 04:10:08;;;;;;;6.00;5.43;;;;;;;;;;4993042;28;20481;-80
2022/05/18 04:12:35;;;;;;;6.32;5.82;;;;;;;;;;4993856;28;20026;-78
2022/05/18 04:15:02;;;;;;;5.63;5.13;;;;;;;;;;4993842;28;20069;-77
2022/05/18 04:17:28;;;;;;;5.60;5.10;;;;;;;;;;4993700;28;20046;-79
2022/05/18 04:19:54;;;;;;;5.53;5.03;;;;;;;;;;4994099;28;20027;-79
2022/05/18 04:22:21;;;;;;;6.70;5.95;;;;;;;;;;4994529;28;20051;-80
2022/05/18 04:24:51;;;;;;;5.78;5.18;;;;;;;;;;4993778;28;20027;-81
2022/05/18 04:27:17;;;;;;;8.27;6.38;;;;;;;;;;4994028;28;20057;-82
2022/05/18 04:29:44;;;;;;;9.45;7.28;;;;;;;;;;4993745;28;20124;-81
2022/05/18 04:32:10;;;;;;;6.40;5.82;;;;;;;;;;4994195;28;20030;-81
2022/05/18 04:34:38;;;;;;;5.93;5.35;;;;;;;;;;4994457;28;20038;-81
2022/05/18 04:37:04;;;;;;;5.50;5.00;;;;;;;;;;4992472;28;20635;-79
2022/05/18 04:39:31;;;;;;;6.55;5.35;;;;;;;;;;4992819;28;20026;-78
2022/05/18 04:41:57;;;;;;;5.90;5.35;;;;;;;;;;4994313;28;20112;-81
2022/05/18 04:44:23;;;;;;;6.63;5.88;;;;;;;;;;4995051;28;20031;-81
2022/05/18 04:46:49;;;;;;;7.95;6.05;;;;;;;;;;4993641;28;20030;-80
2022/05/18 04:49:15;;;;;;;6.53;5.93;;;;;;;;;;4993537;28;20146;-80
2022/05/18 04:51:41;;;;;;;6.35;5.43;;;;;;;;;;4992854;28;20495;-80
2022/05/18 04:54:07;;;;;;;5.78;5.18;;;;;;;;;;4993616;28;20089;-80
2022/05/18 04:56:33;;;;;;;5.50;5.00;;;;;;;;;;4993342;28;20049;-80
2022/05/18 04:59:01;;;;;;;6.47;5.57;;;;;;;;;;4993239;28;20055;-79
2022/05/18 05:01:30;;;;;;;5.78;5.07;;;;;;;;;;4993299;28;20385;-79
2022/05/18 05:03:56;;;;;;;6.05;4.95;;;;;;;;;;4993142;28;20038;-78
2022/05/18 05:06:22;;;;;;;5.55;5.05;;;;;;;;;;4992205;28;20040;-77
2022/05/18 05:08:48;;;;;;;6.88;5.80;;;;;;;;;;4993141;28;20597;-79
2022/05/18 05:11:14;;;;;;;6.57;5.10;;;;;;;;;;4993056;28;20027;-78
2022/05/18 05:13:40;;;;;;;5.82;5.22;;;;;;;;;;4993091;28;20046;-78
2022/05/18 05:16:08;;;;;;;6.55;4.97;;;;;;;;;;4993177;28;20061;-77
2022/05/18 05:18:34;;;;;;;6.15;4.50;;;;;;;;;;4992129;28;20096;-79
2022/05/18 05:21:24;;;;;;;6.47;4.95;;;;;;;;;;4992616;28;20103;-78
2022/05/18 05:24:05;;;;;;;5.90;5.05;;;;;;;;;;4982100;28;20433;-78
2022/05/18 05:26:38;;;;;;;5.97;5.22;;;;;;;;;;4987126;28;20038;-80
2022/05/18 05:29:05;;;;;;;5.28;4.78;;;;;;;;;;4974915;28;20031;-77
2022/05/18 05:31:31;;;;;;;5.70;4.68;;;;;;;;;;4982476;28;20081;-79
2022/05/18 05:34:01;;;;;;;5.13;4.57;;;;;;;;;;4981856;28;20030;-79
2022/05/18 05:36:27;;;;;;;6.13;5.53;;;;;;;;;;4982903;28;20030;-78
2022/05/18 05:38:53;;;;;;;8.77;4.40;;;;;;;;;;4987059;28;20053;-79
2022/05/18 05:41:19;;;;;;;7.43;4.78;;;;;;;;;;5194384;22;20088;-78
2022/05/18 05:43:45;;;;;;;5.13;4.47;;;;;;;;;;5031114;28;20532;-80
2022/05/18 05:46:15;;;;;;;5.95;4.53;;;;;;;;;;5033955;28;20026;-79
2022/05/18 05:48:42;;;;;;;5.72;5.22;;;;;;;;;;5022531;28;20427;-78
2022/05/18 05:51:12;;;;;;;6.20;5.10;;;;;;;;;;5030392;28;20116;-77
2022/05/18 05:53:39;;;;;;;5.20;4.70;;;;;;;;;;5028916;28;20038;-79
2022/05/18 05:56:06;;;;;;;6.82;4.75;;;;;;;;;;5013185;28;20067;-78
2022/05/18 05:58:33;;;;;;;5.90;5.40;;;;;;;;;;5014579;28;20037;-79
2022/05/18 06:01:00;;;;;;;5.22;4.72;;;;;;;;;;5017790;28;20048;-78
2022/05/18 06:03:26;;;;;;;5.45;4.53;;;;;;;;;;5015054;28;20030;-78
2022/05/18 06:05:55;;;;;;;5.18;4.68;;;;;;;;;;5014697;28;20030;-80
2022/05/18 06:08:25;;;;;;;5.43;4.93;;;;;;;;;;5033313;28;20030;-81
2022/05/18 06:10:51;;;;;;;6.28;4.97;;;;;;;;;;5021836;28;20033;-77
2022/05/18 06:13:17;;;;;;;6.07;5.25;;;;;;;;;;5016023;28;20484;-81
2022/05/18 06:15:43;;;;;;;5.93;4.68;;;;;;;;;;5018809;28;20037;-79
2022/05/18 06:18:10;;;;;;;5.00;4.50;;;;;;;;;;5014184;28;20034;-78
2022/05/18 06:20:36;;;;;;;5.20;4.60;;;;;;;;;;5012372;28;20048;-78
2022/05/18 06:23:04;;;;;;;5.03;4.40;;;;;;;;;;5013557;28;20052;-79
2022/05/18 06:25:30;;;;;;;7.68;4.75;;;;;;;;;;5029075;28;20029;-81
2022/05/18 06:27:56;;;;;;;5.05;4.50;;;;;;;;;;5033338;28;20029;-77
2022/05/18 06:30:22;;;;;;;5.22;4.72;;;;;;;;;;5034125;28;20109;-79
2022/05/18 06:32:48;;;;;;;5.68;4.75;;;;;;;;;;5033995;28;20032;-79
2022/05/18 06:35:14;;;;;;;5.93;4.65;;;;;;;;;;5033740;28;20037;-80
2022/05/18 06:37:40;;;;;;;5.13;4.55;;;;;;;;;;5027663;28;20424;-78
2022/05/18 06:40:07;;;;;;;7.25;3.95;;;;;;;;;;5028481;28;20179;-81
2022/05/18 06:42:34;;;;;;;5.82;4.88;;;;;;;;;;5030483;28;20511;-79
2022/05/18 06:45:00;;;;;;;4.38;3.95;;;;;;;;;;5020453;28;20054;-81
2022/05/18 06:47:26;;;;;;;5.20;4.70;;;;;;;;;;5014080;28;20037;-78
2022/05/18 06:49:53;;;;;;;6.93;4.28;;;;;;;;;;5023856;28;20522;-81
2022/05/18 06:52:19;;;;;;;6.25;4.82;;;;;;;;;;5032921;28;20033;-81
2022/05/18 06:54:46;;;;;;;5.35;4.57;;;;;;;;;;5032860;28;20434;-79
2022/05/18 06:57:12;;;;;;;5.57;4.63;;;;;;;;;;5030265;28;20037;-78
2022/05/18 06:59:39;;;;;;;5.63;4.65;;;;;;;;;;5022426;28;20038;-79
2022/05/18 07:02:05;;;;;;;5.47;4.32;;;;;;;;;;5026446;28;20036;-79
2022/05/18 07:04:31;;;;;;;6.05;4.32;;;;;;;;;;5018848;28;20041;-79
2022/05/18 07:06:59;;;;;;;7.05;4.53;;;;;;;;;;5017544;28;20036;-80
2022/05/18 07:09:26;;;;;;;5.50;4.22;;;;;;;;;;5022325;28;20038;-77
2022/05/18 07:11:58;;;;;;;5.43;4.60;;;;;;;;;;5017234;28;20467;-79
2022/05/18 07:14:27;;;;;;;5.38;4.88;;;;;;;;;;5031715;28;20337;-79
2022/05/18 07:16:53;;;;;;;4.60;4.20;;;;;;;;;;5033107;28;20037;-79
2022/05/18 07:19:20;;;;;;;4.93;4.00;;;;;;;;;;5032997;28;20611;-83
2022/05/18 07:21:47;;;;;;;7.70;5.65;;;;;;;;;;5033216;28;20057;-81
2022/05/18 07:24:14;;;;;;;5.63;4.68;;;;;;;;;;5016261;28;20128;-82
2022/05/18 07:26:41;;;;;;;5.45;4.95;;;;;;;;;;5013141;28;20022;-84
2022/05/18 07:29:08;;;;;;;5.43;4.68;;;;;;;;;;5012992;28;20041;-81
2022/05/18 07:34:19;;;;;;;6.28;5.20;;;;;;;;;;5012913;28;20459;-81
2022/05/18 07:36:45;;;;;;;6.45;5.50;;;;;;;;;;5011607;28;20494;-79
2022/05/18 07:39:12;;;;;;;8.18;5.30;;;;;;;;;;5022504;28;20128;-82
2022/05/18 07:41:38;;;;;;;5.38;4.80;;;;;;;;;;5021677;28;20054;-82
2022/05/18 07:44:05;;;;;;;5.85;5.22;;;;;;;;;;5012825;28;20048;-82
2022/05/18 07:46:31;;;;;;;4.70;4.30;;;;;;;;;;5016563;28;20430;-79
2022/05/18 07:48:57;;;;;;;5.40;4.30;;;;;;;;;;5019502;28;20491;-81
2022/05/18 07:51:23;;;;;;;5.70;4.35;;;;;;;;;;5030610;28;20025;-78
2022/05/18 07:53:49;;;;;;;7.72;5.55;;;;;;;;;;5032351;28;20077;-78
2022/05/18 07:56:15;;;;;;;6.65;5.43;;;;;;;;;;5031028;28;20538;-77
2022/05/18 07:58:42;;;;;;;5.25;4.75;;;;;;;;;;5031657;28;20033;-77
2022/05/18 08:01:08;;;;;;;5.25;4.85;;;;;;;;;;5022755;28;20068;-77
2022/05/18 08:03:34;;;;;;;6.72;4.82;;;;;;;;;;5024799;28;20053;-77
2022/05/18 08:06:02;;;;;;;5.25;4.85;;;;;;;;;;5027407;28;20025;-78
2022/05/18 08:08:28;;;;;;;5.55;4.72;;;;;;;;;;5031670;28;20077;-79
2022/05/18 08:16:25;;;;;;;;;;;;;;;;;;5023407;28;20472;-79
2022/05/18 08:18:54;;;;;;;59.25;25.13;;;;;;;;;;5031003;28;19924;-76
2022/05/18 08:21:20;;;;;;;187.43;70.85;;;;;;;;;;5030370;28;20074;-78
2022/05/18 08:23:47;;;;;;;161.68;63.10;;;;;;;;;;5025562;28;20076;-76
2022/05/18 08:26:13;;;;;;;6.22;5.53;;;;;;;;;;5032050;28;20091;-78
2022/05/18 08:28:40;;;;;;;5.00;4.60;;;;;;;;;;5023945;28;20084;-76
2022/05/18 08:31:06;;;;;;;5.28;4.63;;;;;;;;;;5026832;28;20057;-78
2022/05/18 08:33:33;;;;;;;5.50;5.00;;;;;;;;;;5011846;28;20100;-79
2022/05/18 08:35:59;;;;;;;5.38;4.53;;;;;;;;;;5012636;28;20030;-78
2022/05/18 08:38:29;;;;;;;5.25;4.85;;;;;;;;;;5030653;28;20041;-78
2022/05/18 08:41:08;;;;;;;5.25;4.75;;;;;;;;;;5031413;28;20136;-76
2022/05/18 08:43:35;;;;;;;6.68;5.63;;;;;;;;;;5017504;28;20025;-79
2022/05/18 08:46:10;;;;;;;5.60;5.10;;;;;;;;;;5011968;28;20026;-81
2022/05/18 08:49:04;;;;;;;7.55;5.35;;;;;;;;;;5011495;28;20115;-82
2022/05/18 08:51:52;;;;;;;8.02;6.00;;;;;;;;;;5011633;28;20152;-81
2022/05/18 08:54:22;;;;;;;17.60;14.43;;;;;;;;;;5028251;28;20542;-80
2022/05/18 08:56:50;;;;;;;11.38;6.95;;;;;;;;;;5011822;28;20061;-82
2022/05/18 08:59:23;;;;;;;6.80;6.05;;;;;;;;;;5026789;28;20021;-80
2022/05/18 09:01:56;;;;;;;5.97;5.38;;;;;;;;;;5031090;28;20025;-80
2022/05/18 09:04:24;;;;;;;13.55;8.00;;;;;;;;;;5032585;28;20112;-83
2022/05/18 09:07:09;;;;;;;9.25;6.38;;;;;;;;;;5033162;28;20029;-78
2022/05/18 09:12:26;;;;;;;157.82;60.40;;;;;;;;;;5030363;28;20130;-83
2022/05/18 09:14:52;;;;;;;8.52;7.00;;;;;;;;;;5029757;28;20160;-81
2022/05/18 09:17:25;;;;;;;7.82;5.57;;;;;;;;;;5030382;28;20033;-79
2022/05/18 09:20:04;;;;;;;9.15;5.55;;;;;;;;;;5029649;28;20041;-80
2022/05/18 09:22:38;;;;;;;7.95;6.18;;;;;;;;;;5030921;28;20034;-78
2022/05/18 09:25:23;;;;;;;6.18;5.32;;;;;;;;;;5016863;28;20025;-78
2022/05/18 09:27:51;;;;;;;5.68;4.97;;;;;;;;;;5011307;28;20038;-83
2022/05/18 09:30:36;;;;;;;6.25;5.60;;;;;;;;;;5011840;28;20033;-82
2022/05/18 09:33:06;;;;;;;6.18;5.32;;;;;;;;;;5027494;28;20793;-80
2022/05/18 09:35:36;;;;;;;6.03;5.53;;;;;;;;;;5030726;28;20033;-80
2022/05/18 09:38:09;;;;;;;5.40;5.00;;;;;;;;;;5020186;28;20037;-82
2022/05/18 09:40:44;;;;;;;5.53;5.03;;;;;;;;;;5023211;28;20361;-81
2022/05/18 09:43:12;;;;;;;5.22;4.72;;;;;;;;;;5018081;28;20045;-80
2022/05/18 09:45:42;;;;;;;5.40;4.90;;;;;;;;;;5030773;28;20491;-79
2022/05/18 09:48:30;;;;;;;4.70;4.30;;;;;;;;;;5031094;28;20040;-79
2022/05/18 09:50:56;;;;;;;11.18;7.15;;;;;;;;;;5030931;28;20025;-79
2022/05/18 09:53:22;;;;;;;5.68;5.07;;;;;;;;;;5030788;28;20029;-80
2022/05/18 09:55:49;;;;;;;6.68;5.38;;;;;;;;;;5030512;28;20048;-78
2022/05/18 09:58:19;;;;;;;10.05;6.35;;;;;;;;;;5028934;28;20034;-80
2022/05/18 10:00:45;;;;;;;2.47;2.28;;;;;;;;;;5028587;28;20029;-80
2022/05/18 10:09:11;;;;;;;2.67;2.47;;;;;;;;;;5022168;28;20052;-79
2022/05/18 10:11:38;;;;;;;2.20;1.83;;;;;;;;;;5030512;28;20030;-80
2022/05/18 10:14:08;;;;;;;3.33;1.67;;;;;;;;;;5012752;28;20029;-81
2022/05/18 10:16:38;;;;;;;3.00;2.20;;;;;;;;;;5009907;28;20025;-79
2022/05/18 10:19:05;;;;;;;4.53;2.63;;;;;;;;;;5011876;28;20080;-77
2022/05/18 10:21:34;;;;;;;5.03;3.83;;;;;;;;;;5015243;28;20045;-82
2022/05/18 10:24:24;;;;;;;4.22;3.17;;;;;;;;;;5010543;28;20080;-83
2022/05/18 10:27:09;;;;;;;2.47;2.28;;;;;;;;;;5010804;28;20030;-83
2022/05/18 10:29:35;;;;;;;2.90;2.65;;;;;;;;;;5014694;28;20104;-83
2022/05/18 10:32:04;;;;;;;3.70;2.88;;;;;;;;;;5029222;28;20041;-79
2022/05/18 10:34:33;;;;;;;4.18;3.40;;;;;;;;;;5014560;28;20395;-82
2022/05/18 10:37:01;;;;;;;3.58;2.88;;;;;;;;;;5012662;28;20060;-79
2022/05/18 10:39:33;;;;;;;3.72;2.50;;;;;;;;;;5043046;28;20084;-80
2022/05/18 10:42:01;;;;;;;3.55;2.70;;;;;;;;;;5033463;28;20057;-81
2022/05/18 10:44:46;;;;;;;5.18;2.85;;;;;;;;;;5033566;28;20056;-80
2022/05/18 10:47:26;;;;;;;4.72;4.22;;;;;;;;;;5033871;28;20025;-81
2022/05/18 10:49:55;;;;;;;3.75;3.20;;;;;;;;;;5032439;28;20076;-79
2022/05/18 10:52:33;;;;;;;5.13;2.97;;;;;;;;;;5035621;28;20068;-76
2022/05/18 10:55:15;;;;;;;4.65;3.00;;;;;;;;;;5031719;28;20072;-80
2022/05/18 10:57:52;;;;;;;4.55;3.17;;;;;;;;;;5028905;28;20747;-78
2022/05/18 11:00:22;;;;;;;3.67;3.28;;;;;;;;;;5031422;28;20026;-77
2022/05/18 11:02:48;;;;;;;3.53;3.15;;;;;;;;;;5015874;28;20033;-84
2022/05/18 11:05:33;;;;;;;4.38;3.08;;;;;;;;;;5032250;28;20754;-79
2022/05/18 11:07:59;;;;;;;7.30;4.22;;;;;;;;;;5031902;28;20484;-78
2022/05/18 11:10:32;;;;;;;10.95;4.80;;;;;;;;;;5033664;28;20095;-80
2022/05/18 11:13:15;;;;;;;4.37;2.70;;;;;;;;;;5032045;28;20032;-80
2022/05/18 11:16:01;;;;;;;6.60;2.88;;;;;;;;;;5032952;28;20270;-77
2022/05/18 11:18:46;;;;;;;4.40;2.05;;;;;;;;;;5029680;28;20073;-77
2022/05/18 11:21:31;;;;;;;3.55;2.40;;;;;;;;;;5033051;28;20025;-78
2022/05/18 11:24:08;;;;;;;6.03;3.00;;;;;;;;;;5033518;28;20033;-79
2022/05/18 11:26:53;;;;;;;5.25;3.13;;;;;;;;;;5048170;28;20049;-84
2022/05/18 11:29:25;;;;;;;8.02;2.85;;;;;;;;;;5012502;28;20034;-79
2022/05/18 11:32:11;;;;;;;6.47;3.20;;;;;;;;;;5012504;28;20030;-71
2022/05/18 11:34:56;;;;;;;6.32;2.95;;;;;;;;;;5012049;28;20022;-80
2022/05/18 11:37:41;;;;;;;5.50;2.67;;;;;;;;;;5013969;28;20029;-80
2022/05/18 11:40:08;;;;;;;3.83;2.72;;;;;;;;;;5011190;28;20034;-78
2022/05/18 11:42:53;;;;;;;3.70;3.00;;;;;;;;;;5033135;28;20068;-77
2022/05/18 11:45:30;;;;;;;3.45;2.80;;;;;;;;;;5032319;28;20029;-79
2022/05/18 11:48:00;;;;;;;4.95;2.83;;;;;;;;;;5031763;28;20184;-78
2022/05/18 11:50:35;;;;;;;4.93;3.00;;;;;;;;;;5031930;28;20380;-78
2022/05/18 11:53:13;;;;;;;3.88;2.25;;;;;;;;;;5033758;28;20036;-78
2022/05/18 11:55:43;;;;;;;5.78;2.42;;;;;;;;;;5033491;28;20033;-80
2022/05/18 11:58:13;;;;;;;4.60;2.20;;;;;;;;;;5031446;28;20430;-79
2022/05/18 12:00:56;;;;;;;3.42;2.00;;;;;;;;;;5033730;28;20080;-80
2022/05/18 12:03:42;;;;;;;3.80;2.42;;;;;;;;;;5033409;28;20109;-78
2022/05/18 12:06:13;;;;;;;4.50;2.63;;;;;;;;;;5033299;28;20488;-82
2022/05/18 12:08:39;;;;;;;3.70;1.63;;;;;;;;;;5031955;28;20423;-78
2022/05/18 12:11:15;;;;;;;3.83;1.67;;;;;;;;;;5031911;28;20438;-78
2022/05/18 12:13:44;;;;;;;3.20;1.50;;;;;;;;;;5032941;28;20041;-79
2022/05/18 12:16:31;;;;;;;4.30;1.80;;;;;;;;;;5031869;28;20068;-78
2022/05/18 12:19:03;;;;;;;3.97;1.50;;;;;;;;;;5031503;28;20046;-79
2022/05/18 12:21:34;;;;;;;5.95;2.17;;;;;;;;;;5033357;28;20033;-80
2022/05/18 12:24:03;;;;;;;3.13;1.83;;;;;;;;;;5033799;28;20034;-81
2022/05/18 12:26:31;;;;;;;3.70;1.50;;;;;;;;;;5031355;28;20476;-78
2022/05/18 12:28:58;;;;;;;8.15;6.97;;;;;;;;;;5015740;28;20112;-80
2022/05/18 12:31:26;;;;;;;5.70;3.53;;;;;;;;;;5019377;28;20030;-79
2022/05/18 12:34:16;;;;;;;4.70;1.58;;;;;;;;;;5013448;28;20468;-79
2022/05/18 12:37:01;;;;;;;3.30;1.60;;;;;;;;;;5013157;28;20030;-78
2022/05/18 12:39:46;;;;;;;2.58;1.92;;;;;;;;;;5025760;28;20041;-80
2022/05/18 12:42:20;;;;;;;6.03;2.55;;;;;;;;;;5034010;28;20076;-77
2022/05/18 12:44:56;;;;;;;6.07;3.40;;;;;;;;;;5032705;28;20017;-78
2022/05/18 12:47:31;;;;;;;3.88;2.20;;;;;;;;;;5032392;28;20022;-76
2022/05/18 12:49:57;;;;;;;5.13;2.97;;;;;;;;;;5015254;28;20044;-80
2022/05/18 12:52:42;;;;;;;5.82;2.08;;;;;;;;;;5031843;28;20515;-78
2022/05/18 12:55:30;;;;;;;3.10;1.42;;;;;;;;;;5032657;28;20057;-77
2022/05/18 12:58:11;;;;;;;3.15;1.58;;;;;;;;;;5032319;28;20040;-80
2022/05/18 13:00:43;;;;;;;7.93;1.95;;;;;;;;;;5032380;28;20052;-71
2022/05/18 13:03:09;;;;;;;3.25;1.15;;;;;;;;;;5031626;28;20103;-78
2022/05/18 13:05:39;;;;;;;6.13;1.95;;;;;;;;;;5029966;28;20379;-81
2022/05/18 13:08:11;;;;;;;2.85;1.27;;;;;;;;;;5032446;28;20104;-78
2022/05/18 13:10:38;;;;;;;4.88;1.70;;;;;;;;;;5031761;28;20388;-80
2022/05/18 13:13:23;;;;;;;2.63;1.23;;;;;;;;;;5032330;28;20033;-77
2022/05/18 13:15:49;;;;;;;1.75;1.10;;;;;;;;;;5032207;28;20036;-79
2022/05/18 13:18:19;;;;;;;3.97;1.50;;;;;;;;;;5031429;28;20479;-76
2022/05/18 13:20:55;;;;;;;3.03;1.40;;;;;;;;;;5026832;28;20025;-78
2022/05/18 13:23:24;;;;;;;4.60;1.50;;;;;;;;;;5030447;28;20087;-76
2022/05/18 13:25:55;;;;;;;3.47;1.20;;;;;;;;;;5031624;28;20476;-77
2022/05/18 13:28:22;;;;;;;4.57;1.13;;;;;;;;;;5032340;28;20404;-77
2022/05/18 13:30:51;;;;;;;3.45;1.27;;;;;;;;;;5031673;28;20053;-79
2022/05/18 13:33:17;;;;;;;2.38;1.30;;;;;;;;;;5031876;28;20538;-77
2022/05/18 13:35:46;;;;;;;2.65;1.20;;;;;;;;;;5031000;28;20100;-78
2022/05/18 13:38:32;;;;;;;6.57;2.03;;;;;;;;;;5018939;28;20073;-76
2022/05/18 13:40:58;;;;;;;2.30;1.20;;;;;;;;;;5022699;28;20041;-74
2022/05/18 13:43:24;;;;;;;5.32;1.50;;;;;;;;;;5022713;28;20020;-77
2022/05/18 13:45:57;;;;;;;5.60;1.33;;;;;;;;;;5020698;28;20037;-82
2022/05/18 13:48:25;;;;;;;4.45;1.90;;;;;;;;;;5019833;28;20030;-78
2022/05/18 13:50:53;;;;;;;3.13;1.00;;;;;;;;;;5024818;28;20140;-82
2022/05/18 13:53:39;;;;;;;4.95;1.83;;;;;;;;;;5032463;28;20056;-79
2022/05/18 13:56:11;;;;;;;4.75;1.15;;;;;;;;;;5031170;28;20034;-81
2022/05/18 13:58:41;;;;;;;4.07;1.23;;;;;;;;;;5032046;28;20487;-81
2022/05/18 14:01:11;;;;;;;2.80;1.05;;;;;;;;;;5031210;28;20037;-77
2022/05/18 14:03:40;;;;;;;2.50;0.90;;;;;;;;;;5033480;28;20025;-76
2022/05/18 14:06:08;;;;;;;3.28;1.45;;;;;;;;;;5034813;28;20037;-77
2022/05/18 14:08:35;;;;;;;2.35;1.00;;;;;;;;;;5034504;28;20029;-77
2022/05/18 14:11:12;;;;;;;3.67;1.10;;;;;;;;;;5034571;28;20028;-78
2022/05/18 14:13:39;;;;;;;5.03;1.75;;;;;;;;;;5034428;28;20029;-76
2022/05/18 14:16:06;;;;;;;3.55;0.80;;;;;;;;;;5033054;28;20404;-77
2022/05/18 14:18:36;;;;;;;2.95;1.00;;;;;;;;;;5034113;28;20044;-78
2022/05/18 14:21:06;;;;;;;1.95;1.08;;;;;;;;;;5034496;28;20111;-82
2022/05/18 14:23:39;;;;;;;2.10;0.75;;;;;;;;;;5034759;28;20039;-78
2022/05/18 14:26:06;;;;;;;2.13;0.80;;;;;;;;;;5033826;28;20021;-77
2022/05/18 14:28:37;;;;;;;2.00;0.90;;;;;;;;;;5034694;28;20503;-80
2022/05/18 14:31:03;;;;;;;2.95;1.13;;;;;;;;;;5033293;28;20044;-77
2022/05/18 14:33:50;;;;;;;2.20;0.98;;;;;;;;;;5033927;28;20033;-77
2022/05/18 14:36:23;;;;;;;5.15;0.95;;;;;;;;;;5035763;28;20040;-78
2022/05/18 14:38:50;;;;;;;;;;;;;;;;;;5018064;28;20041;-78
2022/05/18 14:41:17;;;;;;;1.83;0.80;;;;;;;;;;5034651;28;19919;-78
2022/05/18 14:43:44;;;;;;;2.90;0.90;;;;;;;;;;5034094;28;20033;-81
2022/05/18 14:46:21;;;;;;;3.42;0.93;;;;;;;;;;5033956;28;20051;-77
2022/05/18 14:48:50;;;;;;;3.45;1.02;;;;;;;;;;5034785;28;20026;-77
2022/05/18 14:51:35;;;;;;;2.80;1.05;;;;;;;;;;5032241;28;20030;-78
2022/05/18 14:54:05;;;;;;;3.45;1.10;;;;;;;;;;5024009;28;20551;-77
2022/05/18 14:56:33;;;;;;;3.60;1.20;;;;;;;;;;5023855;28;20037;-77
2022/05/18 14:59:01;;;;;;;2.25;0.73;;;;;;;;;;5023999;28;20079;-80
2022/05/18 15:01:35;;;;;;;2.03;0.70;;;;;;;;;;5027701;28;20026;-76
2022/05/18 15:04:10;;;;;;;2.92;0.80;;;;;;;;;;5034345;28;20032;-78
2022/05/18 15:06:37;;;;;;;2.85;0.70;;;;;;;;;;5028027;28;20115;-81
2022/05/18 15:09:04;;;;;;;3.85;0.90;;;;;;;;;;5028115;28;20029;-76
2022/05/18 15:11:30;;;;;;;4.20;0.68;;;;;;;;;;5023198;28;20032;-79
2022/05/18 15:14:10;;;;;;;3.13;1.02;;;;;;;;;;5023741;28;20037;-77
2022/05/18 15:16:43;;;;;;;3.97;1.15;;;;;;;;;;5024510;28;20032;-81
2022/05/18 15:19:18;;;;;;;3.40;0.93;;;;;;;;;;5023883;28;20045;-77